Time;durP1;ratioP1;P1;durP2;ratioP2;P2;SDS_P1;SDS_P2;PMS_P1;PMS_P2;Temp;Humidity;BMP_temperature;BMP_pressure;BME280_temperature;BME280_humidity;BME280_pressure;Samples;Min_cycle;Max_cycle;Signal;HPM_P1;HPM_P2
2021/08/10 00:01:35;;;;;;;23.65;4.80;;;;;;;;;;5042228;28;20576;-61
2021/08/10 00:04:03;;;;;;;24.70;4.60;;;;;;;;;;5040345;28;20022;-36
2021/08/10 00:06:30;;;;;;;20.60;4.95;;;;;;;;;;5044970;28;20380;-36
2021/08/10 00:08:57;;;;;;;28.58;6.25;;;;;;;;;;5042680;28;20056;-43
2021/08/10 00:11:24;;;;;;;31.48;5.82;;;;;;;;;;5046721;28;20021;-51
2021/08/10 00:13:51;;;;;;;23.98;6.10;;;;;;;;;;5039369;28;20043;-55
2021/08/10 00:16:18;;;;;;;38.67;6.93;;;;;;;;;;5034963;28;20030;-57
2021/08/10 00:18:45;;;;;;;31.60;6.50;;;;;;;;;;5039095;28;20024;-52
2021/08/10 00:21:12;;;;;;;35.20;5.97;;;;;;;;;;5032957;28;20516;-64
2021/08/10 00:23:39;;;;;;;26.48;5.68;;;;;;;;;;5038159;28;20116;-49
2021/08/10 00:26:06;;;;;;;26.02;6.05;;;;;;;;;;5041711;28;20017;-44
2021/08/10 00:28:33;;;;;;;29.23;6.18;;;;;;;;;;5042958;28;20037;-43
2021/08/10 00:31:00;;;;;;;27.83;5.85;;;;;;;;;;5042765;28;20075;-55
2021/08/10 00:33:27;;;;;;;27.80;6.50;;;;;;;;;;5028563;28;20400;-63
2021/08/10 00:35:54;;;;;;;18.88;6.07;;;;;;;;;;5041389;28;20075;-45
2021/08/10 00:38:21;;;;;;;25.77;6.63;;;;;;;;;;5024526;28;20041;-42
2021/08/10 00:40:50;;;;;;;28.65;6.57;;;;;;;;;;5047006;28;20087;-61
2021/08/10 00:43:34;;;;;;;24.50;5.25;;;;;;;;;;5047505;28;20021;-58
2021/08/10 00:46:02;;;;;;;30.83;6.30;;;;;;;;;;5041796;28;20536;-60
2021/08/10 00:48:29;;;;;;;21.75;6.13;;;;;;;;;;5026852;28;20116;-61
2021/08/10 00:50:56;;;;;;;29.42;6.43;;;;;;;;;;5042502;28;20059;-58
2021/08/10 00:53:24;;;;;;;27.85;6.88;;;;;;;;;;5042087;28;20021;-61
2021/08/10 00:55:51;;;;;;;26.08;6.75;;;;;;;;;;5048102;28;20013;-61
2021/08/10 00:58:18;;;;;;;32.17;6.80;;;;;;;;;;5036756;28;20028;-45
2021/08/10 01:00:45;;;;;;;17.67;5.63;;;;;;;;;;5032063;28;20036;-54
2021/08/10 01:03:13;;;;;;;28.13;7.05;;;;;;;;;;5185339;23;20057;-38
2021/08/10 01:05:45;;;;;;;24.13;6.18;;;;;;;;;;5053328;28;20082;-54
2021/08/10 01:08:18;;;;;;;27.33;6.55;;;;;;;;;;5052578;28;20032;-47
2021/08/10 01:10:48;;;;;;;28.20;6.53;;;;;;;;;;5057597;28;20024;-53
2021/08/10 01:13:26;;;;;;;30.27;6.80;;;;;;;;;;5054680;28;20016;-45
2021/08/10 01:16:04;;;;;;;28.40;6.07;;;;;;;;;;5043380;28;20487;-38
2021/08/10 01:18:41;;;;;;;28.08;7.03;;;;;;;;;;5056082;28;20028;-57
2021/08/10 01:21:14;;;;;;;25.95;6.38;;;;;;;;;;5057099;28;20078;-44
2021/08/10 01:23:43;;;;;;;34.55;6.20;;;;;;;;;;5051555;28;20024;-53
2021/08/10 01:26:29;;;;;;;29.73;6.60;;;;;;;;;;5055378;28;20047;-45
2021/08/10 01:29:17;;;;;;;25.05;6.05;;;;;;;;;;5046299;28;20492;-43
2021/08/10 01:31:45;;;;;;;24.50;6.35;;;;;;;;;;5053952;28;20025;-38
2021/08/10 01:34:31;;;;;;;27.35;5.93;;;;;;;;;;5051401;28;20053;-53
2021/08/10 01:37:00;;;;;;;32.97;6.53;;;;;;;;;;5048199;28;20025;-39
2021/08/10 01:39:29;;;;;;;25.33;6.50;;;;;;;;;;5051341;28;20024;-44
2021/08/10 01:41:57;;;;;;;29.33;6.57;;;;;;;;;;5051940;28;20452;-58
2021/08/10 01:44:26;;;;;;;26.30;5.93;;;;;;;;;;5050317;28;20020;-63
2021/08/10 01:46:54;;;;;;;29.60;6.70;;;;;;;;;;5053626;28;20399;-38
2021/08/10 01:49:23;;;;;;;29.63;7.00;;;;;;;;;;5051807;28;20078;-44
2021/08/10 01:51:52;;;;;;;22.33;6.32;;;;;;;;;;5053392;28;20029;-45
2021/08/10 01:54:19;;;;;;;23.23;6.38;;;;;;;;;;5046695;28;20029;-50
2021/08/10 01:56:47;;;;;;;23.90;6.50;;;;;;;;;;5052422;28;20412;-51
2021/08/10 01:59:14;;;;;;;21.95;5.75;;;;;;;;;;5053401;28;20024;-46
2021/08/10 02:01:43;;;;;;;25.77;5.50;;;;;;;;;;5054546;28;20091;-52
2021/08/10 02:04:10;;;;;;;24.65;6.30;;;;;;;;;;5051584;28;20376;-56
2021/08/10 02:06:38;;;;;;;24.38;6.03;;;;;;;;;;5052215;28;20036;-43
2021/08/10 02:09:06;;;;;;;25.25;5.65;;;;;;;;;;5052417;28;20051;-43
2021/08/10 02:11:35;;;;;;;21.95;5.97;;;;;;;;;;5046770;28;20029;-47
2021/08/10 02:14:03;;;;;;;18.73;5.57;;;;;;;;;;5047060;28;20024;-47
2021/08/10 02:16:32;;;;;;;21.17;6.15;;;;;;;;;;5051878;28;20086;-59
2021/08/10 02:18:59;;;;;;;19.55;5.97;;;;;;;;;;5052930;28;20010;-45
2021/08/10 02:21:28;;;;;;;20.00;6.15;;;;;;;;;;5053227;28;20021;-59
2021/08/10 02:24:02;;;;;;;18.40;5.53;;;;;;;;;;5053669;28;20091;-61
2021/08/10 02:26:30;;;;;;;19.45;5.30;;;;;;;;;;5035591;28;20010;-60
2021/08/10 02:28:57;;;;;;;19.15;5.45;;;;;;;;;;5035283;28;20385;-48
2021/08/10 02:31:26;;;;;;;19.55;5.28;;;;;;;;;;5053270;28;20756;-59
2021/08/10 02:33:54;;;;;;;21.92;5.95;;;;;;;;;;5053223;28;20014;-47
2021/08/10 02:36:21;;;;;;;29.08;6.45;;;;;;;;;;5053264;28;20045;-61
2021/08/10 02:38:48;;;;;;;14.23;5.30;;;;;;;;;;5053027;28;20060;-48
2021/08/10 02:41:18;;;;;;;20.63;6.05;;;;;;;;;;5052443;28;20366;-48
2021/08/10 02:43:45;;;;;;;13.07;5.20;;;;;;;;;;5034199;28;20364;-53
2021/08/10 02:46:12;;;;;;;20.33;5.72;;;;;;;;;;5052730;28;20032;-53
2021/08/10 02:48:39;;;;;;;17.52;5.80;;;;;;;;;;5052936;28;20381;-51
2021/08/10 02:51:06;;;;;;;16.20;5.55;;;;;;;;;;5052984;28;20039;-47
2021/08/10 02:53:33;;;;;;;22.63;6.03;;;;;;;;;;5052841;28;20017;-61
2021/08/10 02:56:05;;;;;;;17.55;5.13;;;;;;;;;;5052921;28;20021;-63
2021/08/10 02:58:32;;;;;;;;;;;;;;;;;;5053105;28;20025;-60
2021/08/10 03:01:07;;;;;;;13.23;4.95;;;;;;;;;;5052587;28;19913;-62
2021/08/10 03:03:34;;;;;;;22.55;6.30;;;;;;;;;;5052214;28;20377;-52
2021/08/10 03:06:03;;;;;;;19.25;5.40;;;;;;;;;;5052715;28;20044;-53
2021/08/10 03:08:35;;;;;;;18.33;5.68;;;;;;;;;;5052593;28;20025;-45
2021/08/10 03:11:03;;;;;;;17.55;5.43;;;;;;;;;;5052404;28;20025;-62
2021/08/10 03:13:38;;;;;;;15.82;5.25;;;;;;;;;;5043259;28;20112;-40
2021/08/10 03:16:06;;;;;;;16.13;5.93;;;;;;;;;;5052150;28;20024;-55
2021/08/10 03:18:37;;;;;;;19.23;5.50;;;;;;;;;;5051925;28;20028;-45
2021/08/10 03:21:06;;;;;;;16.25;5.22;;;;;;;;;;5051520;28;20021;-60
2021/08/10 03:23:34;;;;;;;14.38;5.03;;;;;;;;;;5051551;28;20033;-52
2021/08/10 03:26:04;;;;;;;13.68;5.45;;;;;;;;;;5051663;28;20049;-63
2021/08/10 03:28:32;;;;;;;17.83;5.47;;;;;;;;;;5051592;28;20021;-41
2021/08/10 03:31:00;;;;;;;17.98;4.90;;;;;;;;;;5051779;28;20434;-41
2021/08/10 03:33:31;;;;;;;11.05;4.88;;;;;;;;;;5051534;28;20100;-44
2021/08/10 03:35:58;;;;;;;16.88;5.07;;;;;;;;;;5034072;28;20473;-42
2021/08/10 03:38:26;;;;;;;14.02;5.10;;;;;;;;;;5049218;28;20016;-37
2021/08/10 03:40:53;;;;;;;15.38;5.55;;;;;;;;;;5052088;28;20043;-36
2021/08/10 03:43:21;;;;;;;12.48;4.65;;;;;;;;;;5051180;28;20800;-36
2021/08/10 03:45:51;;;;;;;10.98;5.10;;;;;;;;;;5051983;28;20074;-37
2021/08/10 03:48:18;;;;;;;13.48;4.80;;;;;;;;;;5051421;28;20024;-37
2021/08/10 03:50:46;;;;;;;14.93;5.03;;;;;;;;;;5051621;28;20373;-36
2021/08/10 03:53:13;;;;;;;9.85;4.57;;;;;;;;;;5051120;28;20611;-60
2021/08/10 03:55:40;;;;;;;11.35;4.22;;;;;;;;;;5033848;28;20017;-40
2021/08/10 03:58:08;;;;;;;11.45;4.72;;;;;;;;;;5051565;28;20021;-61
2021/08/10 04:00:36;;;;;;;14.20;5.10;;;;;;;;;;5051075;28;20096;-37
2021/08/10 04:03:06;;;;;;;10.88;4.40;;;;;;;;;;5051433;28;20515;-50
2021/08/10 04:05:33;;;;;;;12.63;4.45;;;;;;;;;;5050669;28;20159;-61
2021/08/10 04:08:01;;;;;;;12.05;5.32;;;;;;;;;;5051573;28;20028;-36
2021/08/10 04:10:28;;;;;;;10.93;4.43;;;;;;;;;;5032961;28;20375;-42
2021/08/10 04:12:55;;;;;;;11.52;4.82;;;;;;;;;;5037691;28;20468;-40
2021/08/10 04:15:23;;;;;;;11.40;4.53;;;;;;;;;;5051068;28;20064;-36
2021/08/10 04:17:50;;;;;;;12.60;4.35;;;;;;;;;;5051286;28;20017;-37
2021/08/10 04:20:18;;;;;;;13.15;4.65;;;;;;;;;;5051115;28;20432;-38
2021/08/10 04:22:46;;;;;;;8.85;4.63;;;;;;;;;;5051014;28;20033;-36
2021/08/10 04:25:13;;;;;;;11.48;4.45;;;;;;;;;;5050748;28;20028;-41
2021/08/10 04:27:40;;;;;;;11.55;4.80;;;;;;;;;;5051336;28;20056;-38
2021/08/10 04:30:08;;;;;;;12.90;4.60;;;;;;;;;;5050790;28;20384;-49
2021/08/10 04:32:35;;;;;;;10.30;4.00;;;;;;;;;;5050770;28;20024;-42
2021/08/10 04:35:02;;;;;;;10.43;4.32;;;;;;;;;;5037472;28;20104;-40
2021/08/10 04:37:29;;;;;;;12.07;4.38;;;;;;;;;;5050192;28;20120;-41
2021/08/10 04:39:56;;;;;;;11.23;4.25;;;;;;;;;;5050799;28;20112;-36
2021/08/10 04:42:23;;;;;;;10.15;4.43;;;;;;;;;;5050457;28;20108;-38
2021/08/10 04:44:50;;;;;;;10.77;4.30;;;;;;;;;;5050922;28;20021;-37
2021/08/10 04:47:17;;;;;;;10.52;4.45;;;;;;;;;;5050579;28;20032;-47
2021/08/10 04:49:44;;;;;;;10.20;4.10;;;;;;;;;;5050833;28;20113;-59
2021/08/10 04:52:11;;;;;;;8.85;4.40;;;;;;;;;;5050214;28;20044;-35
2021/08/10 04:54:38;;;;;;;10.60;4.18;;;;;;;;;;5033270;28;20047;-37
2021/08/10 04:57:05;;;;;;;15.15;4.47;;;;;;;;;;5050385;28;20037;-37
2021/08/10 04:59:32;;;;;;;11.98;4.10;;;;;;;;;;5050967;28;20021;-42
2021/08/10 05:01:59;;;;;;;11.25;4.38;;;;;;;;;;5050356;28;20032;-46
2021/08/10 05:04:26;;;;;;;9.95;4.13;;;;;;;;;;5050487;28;20128;-44
2021/08/10 05:06:54;;;;;;;9.07;4.38;;;;;;;;;;5050538;28;20020;-50
2021/08/10 05:09:21;;;;;;;7.95;3.65;;;;;;;;;;5050549;28;20750;-42
2021/08/10 05:11:48;;;;;;;10.20;3.85;;;;;;;;;;5050926;28;20052;-40
2021/08/10 05:14:15;;;;;;;8.75;3.53;;;;;;;;;;5050214;28;20033;-44
2021/08/10 05:16:42;;;;;;;10.68;4.20;;;;;;;;;;5033477;28;20060;-37
2021/08/10 05:19:09;;;;;;;10.15;4.15;;;;;;;;;;5050222;28;20036;-37
2021/08/10 05:21:36;;;;;;;7.30;3.70;;;;;;;;;;5050655;28;20111;-40
2021/08/10 05:24:03;;;;;;;10.27;3.65;;;;;;;;;;5050290;28;20032;-62
2021/08/10 05:26:30;;;;;;;8.93;3.83;;;;;;;;;;5051191;28;20120;-61
2021/08/10 05:28:57;;;;;;;12.13;3.83;;;;;;;;;;5050370;28;20017;-61
2021/08/10 05:31:24;;;;;;;11.25;4.18;;;;;;;;;;5050638;28;20017;-59
2021/08/10 05:33:51;;;;;;;11.93;4.35;;;;;;;;;;5050324;28;20029;-55
2021/08/10 05:36:21;;;;;;;8.90;3.40;;;;;;;;;;5050387;28;20018;-58
2021/08/10 05:38:50;;;;;;;8.55;3.88;;;;;;;;;;5050950;28;20020;-59
2021/08/10 05:41:17;;;;;;;7.25;3.65;;;;;;;;;;5049906;28;20472;-52
2021/08/10 05:43:44;;;;;;;8.98;3.55;;;;;;;;;;5050689;28;20087;-60
2021/08/10 05:46:12;;;;;;;10.15;3.97;;;;;;;;;;5049818;28;20521;-39
2021/08/10 05:48:39;;;;;;;9.23;3.25;;;;;;;;;;5050692;28;20483;-52
2021/08/10 05:51:06;;;;;;;8.45;3.72;;;;;;;;;;5054085;28;20025;-58
2021/08/10 05:53:33;;;;;;;9.43;4.20;;;;;;;;;;5053871;28;20511;-56
2021/08/10 05:56:00;;;;;;;8.05;3.55;;;;;;;;;;5053540;28;20472;-59
2021/08/10 05:58:27;;;;;;;6.03;3.13;;;;;;;;;;5036192;28;20376;-60
2021/08/10 06:00:54;;;;;;;11.13;3.70;;;;;;;;;;5053432;28;20086;-51
2021/08/10 06:03:21;;;;;;;11.75;3.78;;;;;;;;;;5052992;28;20051;-55
2021/08/10 06:05:48;;;;;;;6.53;3.30;;;;;;;;;;5053508;28;20055;-57
2021/08/10 06:08:15;;;;;;;9.90;3.30;;;;;;;;;;5051838;28;20669;-56
2021/08/10 06:10:42;;;;;;;7.20;3.33;;;;;;;;;;5053630;28;20017;-59
2021/08/10 06:13:09;;;;;;;7.03;2.90;;;;;;;;;;5056459;28;20377;-46
2021/08/10 06:15:39;;;;;;;8.00;3.28;;;;;;;;;;5035662;28;20491;-52
2021/08/10 06:18:06;;;;;;;5.75;2.88;;;;;;;;;;5053348;28;20021;-51
2021/08/10 06:20:33;;;;;;;6.63;2.80;;;;;;;;;;5053990;28;20388;-55
2021/08/10 06:23:04;;;;;;;7.00;3.10;;;;;;;;;;5053225;28;20131;-54
2021/08/10 06:25:31;;;;;;;11.48;2.80;;;;;;;;;;5052963;28;20024;-50
2021/08/10 06:27:58;;;;;;;7.80;3.03;;;;;;;;;;5053085;28;20104;-46
2021/08/10 06:30:25;;;;;;;5.75;2.80;;;;;;;;;;5053226;28;20078;-48
2021/08/10 06:32:52;;;;;;;6.82;2.40;;;;;;;;;;5053256;28;20024;-44
2021/08/10 06:35:19;;;;;;;7.10;2.63;;;;;;;;;;5052749;28;20537;-48
2021/08/10 06:37:46;;;;;;;4.93;2.30;;;;;;;;;;5053377;28;20039;-58
2021/08/10 06:40:13;;;;;;;6.03;2.55;;;;;;;;;;5052896;28;20029;-57
2021/08/10 06:42:40;;;;;;;5.25;2.72;;;;;;;;;;5053039;28;20069;-49
2021/08/10 06:45:08;;;;;;;6.72;3.33;;;;;;;;;;5052347;28;20021;-46
2021/08/10 06:47:35;;;;;;;6.28;2.90;;;;;;;;;;5052771;28;20086;-54
2021/08/10 06:50:02;;;;;;;5.82;2.63;;;;;;;;;;5052826;28;20036;-59
2021/08/10 06:52:29;;;;;;;4.47;2.25;;;;;;;;;;5053006;28;20029;-51
2021/08/10 06:54:56;;;;;;;4.78;2.22;;;;;;;;;;5052613;28;20021;-42
2021/08/10 06:57:23;;;;;;;7.75;2.40;;;;;;;;;;5053049;28;20025;-44
2021/08/10 06:59:50;;;;;;;7.82;2.55;;;;;;;;;;5052645;28;20013;-48
2021/08/10 07:02:17;;;;;;;5.32;2.05;;;;;;;;;;5051726;28;20039;-37
2021/08/10 07:04:44;;;;;;;7.03;2.20;;;;;;;;;;5034239;28;20017;-41
2021/08/10 07:07:11;;;;;;;6.80;2.20;;;;;;;;;;5052830;28;20130;-41
2021/08/10 07:09:38;;;;;;;4.68;2.13;;;;;;;;;;5052716;28;20819;-49
2021/08/10 07:12:05;;;;;;;6.03;2.03;;;;;;;;;;5052223;28;20462;-44
2021/08/10 07:14:32;;;;;;;6.93;2.05;;;;;;;;;;5052360;28;20496;-46
2021/08/10 07:16:59;;;;;;;3.47;1.80;;;;;;;;;;5052176;28;20082;-43
2021/08/10 07:19:26;;;;;;;2.90;1.80;;;;;;;;;;5052686;28;20071;-47
2021/08/10 07:21:53;;;;;;;5.18;2.00;;;;;;;;;;5051677;28;20123;-41
2021/08/10 07:24:20;;;;;;;6.55;1.88;;;;;;;;;;5039974;28;20029;-53
2021/08/10 07:26:48;;;;;;;6.55;1.98;;;;;;;;;;5051498;28;20070;-50
2021/08/10 07:29:15;;;;;;;5.57;2.08;;;;;;;;;;5052020;28;20423;-52
2021/08/10 07:31:42;;;;;;;5.20;1.90;;;;;;;;;;5032751;28;20621;-44
2021/08/10 07:34:09;;;;;;;3.38;1.88;;;;;;;;;;5050720;28;20044;-36
2021/08/10 07:36:36;;;;;;;3.50;1.83;;;;;;;;;;5050925;28;20029;-37
2021/08/10 07:39:03;;;;;;;3.92;1.60;;;;;;;;;;5045027;28;20539;-35
2021/08/10 07:41:30;;;;;;;2.38;1.50;;;;;;;;;;5051811;28;20032;-36
2021/08/10 07:43:57;;;;;;;3.83;1.58;;;;;;;;;;5051307;28;20108;-38
2021/08/10 07:46:24;;;;;;;4.65;1.90;;;;;;;;;;5051797;28;20013;-37
2021/08/10 07:48:51;;;;;;;4.25;1.60;;;;;;;;;;5051405;28;20043;-36
2021/08/10 07:51:18;;;;;;;3.00;1.52;;;;;;;;;;5051836;28;20029;-58
2021/08/10 07:53:45;;;;;;;5.65;1.50;;;;;;;;;;5050877;28;20472;-59
2021/08/10 07:56:13;;;;;;;2.63;1.40;;;;;;;;;;5050445;28;20108;-57
2021/08/10 07:58:40;;;;;;;4.30;1.52;;;;;;;;;;5051427;28;20009;-58
2021/08/10 08:01:07;;;;;;;3.42;1.45;;;;;;;;;;5051347;28;20393;-43
2021/08/10 08:03:35;;;;;;;3.67;1.67;;;;;;;;;;5050868;28;20563;-41
2021/08/10 08:06:02;;;;;;;4.10;1.73;;;;;;;;;;5051526;28;20024;-43
2021/08/10 08:08:30;;;;;;;5.78;1.95;;;;;;;;;;5050883;28;20124;-40
2021/08/10 08:10:57;;;;;;;2.55;1.48;;;;;;;;;;5051537;28;20017;-41
2021/08/10 08:13:28;;;;;;;2.83;1.58;;;;;;;;;;5051304;28;20017;-54
2021/08/10 08:15:55;;;;;;;4.68;1.60;;;;;;;;;;5033031;28;20381;-58
2021/08/10 08:18:23;;;;;;;4.05;1.77;;;;;;;;;;5051167;28;20017;-42
2021/08/10 08:20:50;;;;;;;3.13;1.80;;;;;;;;;;5050895;28;20044;-42
2021/08/10 08:23:18;;;;;;;2.88;1.65;;;;;;;;;;5051441;28;20033;-48
2021/08/10 08:25:45;;;;;;;10.60;1.58;;;;;;;;;;5050817;28;20476;-48
2021/08/10 08:28:13;;;;;;;3.15;1.20;;;;;;;;;;5051075;28;20126;-49
2021/08/10 08:30:40;;;;;;;3.08;1.60;;;;;;;;;;5050941;28;20017;-54
2021/08/10 08:33:08;;;;;;;2.30;1.08;;;;;;;;;;5051161;28;20413;-40
2021/08/10 08:35:37;;;;;;;2.33;1.20;;;;;;;;;;5050513;28;20029;-47
2021/08/10 08:38:04;;;;;;;2.90;1.45;;;;;;;;;;5051091;28;20105;-42
2021/08/10 08:40:31;;;;;;;2.30;1.20;;;;;;;;;;5049552;28;20040;-36
2021/08/10 08:42:58;;;;;;;1.88;1.10;;;;;;;;;;5050487;28;20025;-43
2021/08/10 08:45:25;;;;;;;2.17;1.23;;;;;;;;;;5050802;28;20026;-42
2021/08/10 08:47:54;;;;;;;2.67;1.33;;;;;;;;;;5050363;28;20013;-37
2021/08/10 08:50:23;;;;;;;4.53;1.30;;;;;;;;;;5033124;28;20071;-51
2021/08/10 08:52:51;;;;;;;3.25;1.20;;;;;;;;;;5050650;28;20017;-41
2021/08/10 08:55:18;;;;;;;2.88;1.20;;;;;;;;;;5050813;28;20018;-40
2021/08/10 08:57:45;;;;;;;4.50;1.30;;;;;;;;;;5050619;28;20021;-45
2021/08/10 09:00:13;;;;;;;2.88;1.00;;;;;;;;;;5050945;28;20033;-44
2021/08/10 09:02:41;;;;;;;2.22;1.13;;;;;;;;;;5032146;28;20049;-43
2021/08/10 09:05:09;;;;;;;2.97;1.58;;;;;;;;;;5050779;28;20088;-40
2021/08/10 09:07:36;;;;;;;4.32;1.10;;;;;;;;;;5049999;28;20488;-36
2021/08/10 09:10:06;;;;;;;2.55;1.10;;;;;;;;;;5050828;28;20029;-38
2021/08/10 09:12:41;;;;;;;2.22;1.27;;;;;;;;;;5050250;28;20040;-36
2021/08/10 09:15:09;;;;;;;3.42;1.27;;;;;;;;;;5050766;28;20121;-43
2021/08/10 09:17:36;;;;;;;2.95;1.10;;;;;;;;;;5050025;28;20527;-36
2021/08/10 09:20:03;;;;;;;3.30;1.15;;;;;;;;;;5050565;28;20017;-44
2021/08/10 09:22:34;;;;;;;3.28;1.20;;;;;;;;;;5050526;28;20028;-48
2021/08/10 09:25:02;;;;;;;2.60;1.10;;;;;;;;;;5052294;28;20040;-51
2021/08/10 09:27:31;;;;;;;3.22;1.30;;;;;;;;;;5054717;28;20017;-43
2021/08/10 09:29:59;;;;;;;3.47;1.20;;;;;;;;;;5054005;28;20376;-44
2021/08/10 09:32:26;;;;;;;1.88;1.02;;;;;;;;;;5054752;28;20548;-40
2021/08/10 09:35:09;;;;;;;3.63;1.42;;;;;;;;;;5054332;28;20063;-48
2021/08/10 09:37:36;;;;;;;2.08;0.85;;;;;;;;;;5042643;28;20032;-42
2021/08/10 09:40:21;;;;;;;3.60;1.27;;;;;;;;;;5053332;28;20013;-42
2021/08/10 09:42:48;;;;;;;2.13;0.95;;;;;;;;;;5054355;28;20136;-40
2021/08/10 09:45:17;;;;;;;3.53;1.42;;;;;;;;;;5053673;28;20014;-37
2021/08/10 09:47:44;;;;;;;5.68;0.90;;;;;;;;;;5054334;28;20044;-52
2021/08/10 09:50:17;;;;;;;3.42;1.00;;;;;;;;;;5053607;28;20021;-37
2021/08/10 09:52:45;;;;;;;2.17;1.00;;;;;;;;;;5040494;28;20013;-48
2021/08/10 09:55:16;;;;;;;1.70;0.77;;;;;;;;;;5053045;28;20112;-44
2021/08/10 09:57:59;;;;;;;2.17;1.00;;;;;;;;;;5052368;28;20431;-40
2021/08/10 10:00:25;;;;;;;;;;;;;;;;;;5043348;28;20026;-41
2021/08/10 10:03:12;;;;;;;1.92;0.98;;;;;;;;;;5053208;28;19960;-37
2021/08/10 10:05:44;;;;;;;6.18;1.30;;;;;;;;;;5054020;28;20104;-40
2021/08/10 10:08:15;;;;;;;2.83;0.95;;;;;;;;;;5054068;28;20539;-36
2021/08/10 10:10:43;;;;;;;5.32;1.25;;;;;;;;;;5053956;28;20381;-38
2021/08/10 10:13:12;;;;;;;1.92;0.85;;;;;;;;;;5053660;28;20021;-37
2021/08/10 10:15:40;;;;;;;4.05;1.52;;;;;;;;;;5053736;28;20033;-45
2021/08/10 10:18:08;;;;;;;2.60;0.60;;;;;;;;;;5053845;28;20013;-37
2021/08/10 10:20:41;;;;;;;3.67;0.90;;;;;;;;;;5053631;28;20393;-60
2021/08/10 10:23:09;;;;;;;7.75;1.02;;;;;;;;;;5050890;28;20126;-59
2021/08/10 10:25:36;;;;;;;1.55;0.70;;;;;;;;;;5047967;28;20412;-60
2021/08/10 10:28:03;;;;;;;2.15;0.88;;;;;;;;;;5036496;28;20104;-55
2021/08/10 10:30:31;;;;;;;1.08;0.77;;;;;;;;;;5053091;28;20021;-57
2021/08/10 10:32:58;;;;;;;2.28;0.90;;;;;;;;;;5053220;28;20017;-53
2021/08/10 10:35:25;;;;;;;3.72;0.90;;;;;;;;;;5051936;28;20473;-44
2021/08/10 10:37:54;;;;;;;6.30;0.88;;;;;;;;;;5052577;28;20017;-46
2021/08/10 10:40:22;;;;;;;2.25;0.90;;;;;;;;;;5049630;28;20040;-51
2021/08/10 10:42:53;;;;;;;2.22;0.73;;;;;;;;;;5040929;28;20455;-37
2021/08/10 10:45:32;;;;;;;3.35;0.82;;;;;;;;;;5043414;28;20108;-50
2021/08/10 10:47:59;;;;;;;1.35;0.60;;;;;;;;;;5041778;28;20040;-42
2021/08/10 10:50:26;;;;;;;6.40;0.93;;;;;;;;;;5040548;28;20457;-46
2021/08/10 10:53:07;;;;;;;1.52;0.70;;;;;;;;;;5047501;28;20689;-48
2021/08/10 10:55:41;;;;;;;2.05;0.90;;;;;;;;;;5046356;28;20484;-51
2021/08/10 10:58:24;;;;;;;2.60;0.90;;;;;;;;;;5044238;28;20025;-45
2021/08/10 11:01:09;;;;;;;1.83;0.60;;;;;;;;;;5050485;28;20025;-45
2021/08/10 11:03:36;;;;;;;1.98;0.60;;;;;;;;;;5051238;28;20116;-50
2021/08/10 11:06:21;;;;;;;3.00;0.88;;;;;;;;;;5050510;28;20167;-48
2021/08/10 11:08:48;;;;;;;2.60;0.88;;;;;;;;;;5052152;28;20476;-54
2021/08/10 11:11:41;;;;;;;3.40;1.30;;;;;;;;;;5047903;28;20021;-38
2021/08/10 11:14:28;;;;;;;2.38;0.82;;;;;;;;;;5214306;22;20091;-37
2021/08/10 11:17:10;;;;;;;12.77;1.30;;;;;;;;;;5045890;28;20715;-38
2021/08/10 11:19:41;;;;;;;9.70;1.30;;;;;;;;;;5051513;28;20444;-39
2021/08/10 11:22:17;;;;;;;110.78;9.10;;;;;;;;;;5049890;28;20173;-42
2021/08/10 11:24:46;;;;;;;60.22;4.88;;;;;;;;;;5047961;28;20075;-39
2021/08/10 11:27:31;;;;;;;36.35;4.53;;;;;;;;;;5032452;28;20019;-38
2021/08/10 11:29:59;;;;;;;56.72;5.70;;;;;;;;;;5048533;28;20025;-38
2021/08/10 11:32:36;;;;;;;26.77;3.00;;;;;;;;;;5050634;28;20376;-38
2021/08/10 11:35:26;;;;;;;20.67;3.05;;;;;;;;;;5037667;28;20078;-49
2021/08/10 11:38:08;;;;;;;26.30;2.90;;;;;;;;;;5048005;28;20040;-43
2021/08/10 11:40:51;;;;;;;18.63;2.33;;;;;;;;;;5050276;28;20029;-42
2021/08/10 11:43:19;;;;;;;27.10;2.85;;;;;;;;;;5044266;28;20043;-43
2021/08/10 11:45:47;;;;;;;21.13;2.63;;;;;;;;;;5050187;28;20020;-38
2021/08/10 11:48:15;;;;;;;24.30;3.10;;;;;;;;;;5047875;28;20078;-40
2021/08/10 11:50:42;;;;;;;38.78;4.13;;;;;;;;;;5050643;28;20029;-40
2021/08/10 11:53:09;;;;;;;24.23;3.00;;;;;;;;;;5050392;28;20025;-35
2021/08/10 11:55:37;;;;;;;23.65;3.55;;;;;;;;;;5049945;28;20488;-35
2021/08/10 11:58:08;;;;;;;30.15;3.72;;;;;;;;;;5049791;28;20596;-34
2021/08/10 12:00:37;;;;;;;26.10;3.65;;;;;;;;;;5048137;28;20025;-38
2021/08/10 12:03:05;;;;;;;16.73;3.15;;;;;;;;;;5049928;28;20049;-35
2021/08/10 12:05:32;;;;;;;18.67;2.85;;;;;;;;;;5050403;28;20028;-39
2021/08/10 12:08:00;;;;;;;22.42;2.88;;;;;;;;;;5050732;28;20038;-41
2021/08/10 12:10:32;;;;;;;14.05;2.50;;;;;;;;;;5047823;28;20036;-33
2021/08/10 12:13:00;;;;;;;14.75;2.90;;;;;;;;;;5049018;28;20024;-40
2021/08/10 12:15:36;;;;;;;13.50;2.30;;;;;;;;;;5035497;28;20432;-36
2021/08/10 12:18:03;;;;;;;12.93;2.35;;;;;;;;;;5024800;28;20025;-38
2021/08/10 12:20:30;;;;;;;12.63;2.03;;;;;;;;;;5019733;28;20033;-40
2021/08/10 12:23:02;;;;;;;11.23;2.00;;;;;;;;;;5014848;28;20041;-38
2021/08/10 12:25:29;;;;;;;15.57;2.35;;;;;;;;;;5029933;28;20188;-34
2021/08/10 12:28:03;;;;;;;16.05;2.13;;;;;;;;;;5020077;28;20068;-43
2021/08/10 12:30:32;;;;;;;14.40;2.63;;;;;;;;;;5023377;28;20029;-35
2021/08/10 12:33:33;;;;;;;12.80;2.40;;;;;;;;;;5022396;28;20017;-35
2021/08/10 12:36:01;;;;;;;8.40;1.90;;;;;;;;;;5024188;28;20045;-37
2021/08/10 12:38:29;;;;;;;11.57;2.70;;;;;;;;;;5030876;28;20017;-40
2021/08/10 12:40:57;;;;;;;8.15;2.10;;;;;;;;;;5018874;28;20036;-35
2021/08/10 12:43:24;;;;;;;10.95;2.00;;;;;;;;;;5027897;28;20204;-43
2021/08/10 12:45:51;;;;;;;10.25;2.00;;;;;;;;;;5021406;28;20076;-38
2021/08/10 12:48:24;;;;;;;6.40;1.70;;;;;;;;;;5026381;28;20033;-34
2021/08/10 12:50:55;;;;;;;16.80;1.60;;;;;;;;;;5024023;28;20575;-35
2021/08/10 12:53:26;;;;;;;6.50;2.05;;;;;;;;;;5015162;28;20033;-36
2021/08/10 12:55:53;;;;;;;8.43;1.90;;;;;;;;;;5020821;28;20100;-35
2021/08/10 12:58:20;;;;;;;12.35;1.92;;;;;;;;;;5022106;28;20389;-39
2021/08/10 13:03:25;;;;;;;13.40;1.65;;;;;;;;;;5141601;22;20053;-38
2021/08/10 13:05:54;;;;;;;14.52;2.33;;;;;;;;;;5066174;28;20389;-37
2021/08/10 13:08:22;;;;;;;26.33;2.75;;;;;;;;;;5068844;28;20490;-43
2021/08/10 13:10:49;;;;;;;19.63;2.88;;;;;;;;;;5063809;28;20029;-38
2021/08/10 13:13:24;;;;;;;17.00;3.35;;;;;;;;;;5223191;22;20012;-42
2021/08/10 13:15:52;;;;;;;28.17;3.17;;;;;;;;;;5040684;28;20079;-33
2021/08/10 13:18:26;;;;;;;27.50;3.17;;;;;;;;;;5047496;28;20021;-37
2021/08/10 13:20:54;;;;;;;34.45;3.45;;;;;;;;;;5060705;28;20456;-38
2021/08/10 13:23:22;;;;;;;30.30;3.30;;;;;;;;;;5205241;22;20364;-33
2021/08/10 13:26:00;;;;;;;21.80;2.97;;;;;;;;;;5027266;28;20021;-36
2021/08/10 13:28:28;;;;;;;18.25;3.17;;;;;;;;;;5046470;28;20102;-36
2021/08/10 13:31:15;;;;;;;15.05;2.63;;;;;;;;;;5042173;28;20029;-38
2021/08/10 13:34:09;;;;;;;15.93;2.10;;;;;;;;;;5047713;28;20480;-38
2021/08/10 13:36:36;;;;;;;19.30;3.25;;;;;;;;;;5026385;28;20033;-37
2021/08/10 13:39:04;;;;;;;17.23;2.85;;;;;;;;;;5045892;28;20017;-41
2021/08/10 13:41:32;;;;;;;17.77;2.83;;;;;;;;;;5044483;28;20052;-34
2021/08/10 13:43:59;;;;;;;13.93;2.60;;;;;;;;;;5043993;28;20024;-35
2021/08/10 13:46:30;;;;;;;28.65;2.92;;;;;;;;;;5044253;28;20110;-33
2021/08/10 13:48:58;;;;;;;21.80;2.97;;;;;;;;;;5048379;28;20083;-45
2021/08/10 13:51:25;;;;;;;20.98;3.03;;;;;;;;;;5047478;28;20476;-41
2021/08/10 13:53:52;;;;;;;15.43;2.53;;;;;;;;;;5048759;28;20028;-41
2021/08/10 13:56:19;;;;;;;20.50;3.15;;;;;;;;;;5045435;28;20032;-47
2021/08/10 13:58:46;;;;;;;19.20;2.20;;;;;;;;;;5042428;28;20561;-39
2021/08/10 14:01:57;;;;;;;22.13;2.80;;;;;;;;;;5048125;28;20114;-41
2021/08/10 14:04:04;;;;;;;14.95;2.28;;;;;;;;;;5034674;28;20044;-51
2021/08/10 14:06:31;;;;;;;14.77;2.53;;;;;;;;;;5045346;28;20021;-46
2021/08/10 14:08:58;;;;;;;16.10;2.55;;;;;;;;;;5047876;28;20025;-44
2021/08/10 14:11:25;;;;;;;16.98;3.08;;;;;;;;;;5050095;28;20037;-40
2021/08/10 14:13:52;;;;;;;13.80;2.17;;;;;;;;;;5049074;28;20020;-40
2021/08/10 14:16:23;;;;;;;19.85;2.75;;;;;;;;;;5050768;28;20025;-36
2021/08/10 14:18:51;;;;;;;68.00;3.10;;;;;;;;;;5047181;28;20032;-47
2021/08/10 14:21:19;;;;;;;8.25;1.65;;;;;;;;;;5045539;28;20287;-54
2021/08/10 14:23:46;;;;;;;12.20;1.95;;;;;;;;;;5031840;28;20538;-46
2021/08/10 14:26:13;;;;;;;14.73;2.05;;;;;;;;;;5035870;28;20033;-54
2021/08/10 14:28:41;;;;;;;11.23;1.45;;;;;;;;;;5035125;28;20108;-39
2021/08/10 14:31:12;;;;;;;12.63;1.88;;;;;;;;;;5033989;28;20067;-41
2021/08/10 14:33:40;;;;;;;6.90;1.42;;;;;;;;;;5038502;28;20097;-44
2021/08/10 14:36:07;;;;;;;8.05;1.85;;;;;;;;;;5025579;28;20021;-40
2021/08/10 14:38:35;;;;;;;8.23;1.67;;;;;;;;;;5026969;28;20031;-37
2021/08/10 14:41:02;;;;;;;9.30;1.45;;;;;;;;;;5035942;28;20508;-35
2021/08/10 14:43:29;;;;;;;9.45;1.45;;;;;;;;;;5036305;28;20030;-33
2021/08/10 14:45:56;;;;;;;9.23;1.35;;;;;;;;;;5030326;28;20030;-43
2021/08/10 14:48:23;;;;;;;7.68;1.33;;;;;;;;;;5034521;28;20354;-38
2021/08/10 14:50:50;;;;;;;11.35;1.15;;;;;;;;;;5028804;28;20022;-40